createdAt,value
2022-08-10T00:00:49.596Z,1023.10
2022-08-10T00:01:51.593Z,1023.09
2022-08-10T00:02:49.568Z,1023.09
2022-08-10T00:03:49.552Z,1023.07
2022-08-10T00:04:49.560Z,1023.07
2022-08-10T00:05:53.164Z,1023.07
2022-08-10T00:06:49.527Z,1023.07
2022-08-10T00:07:49.512Z,1023.06
2022-08-10T00:08:49.510Z,1023.08
2022-08-10T00:09:51.122Z,1023.07
2022-08-10T00:10:49.511Z,1023.07
2022-08-10T00:11:49.485Z,1023.08
2022-08-10T00:12:54.196Z,1023.10
2022-08-10T00:13:49.462Z,1023.10
2022-08-10T00:14:49.439Z,1023.12
2022-08-10T00:15:54.224Z,1023.13
2022-08-10T00:16:49.453Z,1023.15
2022-08-10T00:17:49.411Z,1023.16
2022-08-10T00:18:49.404Z,1023.16
2022-08-10T00:20:04.178Z,1023.18
2022-08-10T00:20:49.414Z,1023.19
2022-08-10T00:21:49.368Z,1023.19
2022-08-10T00:22:52.942Z,1023.18
2022-08-10T00:23:49.348Z,1023.17
2022-08-10T00:24:49.333Z,1023.16
2022-08-10T00:25:49.336Z,1023.15
2022-08-10T00:27:52.570Z,1023.15
2022-08-10T00:28:08.016Z,1023.13
2022-08-10T00:28:49.300Z,1023.13
2022-08-10T00:29:49.299Z,1023.12
2022-08-10T00:30:49.288Z,1023.12
2022-08-10T00:31:55.908Z,1023.12
2022-08-10T00:32:49.257Z,1023.11
2022-08-10T00:33:49.240Z,1023.11
2022-08-10T00:34:49.235Z,1023.10
2022-08-10T00:35:49.229Z,1023.10
2022-08-10T00:36:49.208Z,1023.09
2022-08-10T00:37:56.409Z,1023.07
2022-08-10T00:38:49.194Z,1023.06
2022-08-10T00:39:49.235Z,1023.06
2022-08-10T00:40:49.186Z,1023.06
2022-08-10T00:42:02.388Z,1023.06
2022-08-10T00:42:49.153Z,1023.07
2022-08-10T00:43:49.146Z,1023.08
2022-08-10T00:44:49.131Z,1023.08
2022-08-10T00:45:59.028Z,1023.08
2022-08-10T00:46:49.124Z,1023.08
2022-08-10T00:47:49.086Z,1023.07
2022-08-10T00:48:49.542Z,1023.06
2022-08-10T00:49:49.069Z,1023.04
2022-08-10T00:50:49.075Z,1023.03
2022-08-10T00:51:49.072Z,1023.02
2022-08-10T00:52:49.046Z,1023.02
2022-08-10T00:53:49.024Z,1023.00
2022-08-10T00:54:49.022Z,1022.98
2022-08-10T00:56:35.828Z,1022.96
2022-08-10T00:57:21.864Z,1022.94
2022-08-10T00:57:54.925Z,1022.92
2022-08-10T00:58:48.985Z,1022.90
2022-08-10T00:59:58.521Z,1022.88
2022-08-10T01:00:48.984Z,1022.87
2022-08-10T01:02:09.315Z,1022.86
2022-08-10T01:02:49.050Z,1022.85
2022-08-10T01:04:36.206Z,1022.84
2022-08-10T01:05:03.692Z,1022.84
2022-08-10T01:05:51.450Z,1022.83
2022-08-10T01:06:48.890Z,1022.83
2022-08-10T01:07:48.883Z,1022.81
2022-08-10T01:08:48.867Z,1022.79
2022-08-10T01:09:55.851Z,1022.77
2022-08-10T01:10:48.877Z,1022.76
2022-08-10T01:12:40.367Z,1022.76
2022-08-10T01:12:49.121Z,1022.77
2022-08-10T01:13:48.818Z,1022.78
2022-08-10T01:14:48.823Z,1022.79
2022-08-10T01:15:48.806Z,1022.78
2022-08-10T01:16:48.788Z,1022.78
2022-08-10T01:17:50.643Z,1022.78
2022-08-10T01:18:48.758Z,1022.76
2022-08-10T01:19:48.744Z,1022.76
2022-08-10T01:20:48.762Z,1022.75
2022-08-10T01:21:54.006Z,1022.75
2022-08-10T01:22:48.728Z,1022.75
2022-08-10T01:23:48.706Z,1022.75
2022-08-10T01:24:48.696Z,1022.75
2022-08-10T01:26:10.450Z,1022.75
2022-08-10T01:26:49.261Z,1022.76
2022-08-10T01:27:48.663Z,1022.76
2022-08-10T01:28:48.670Z,1022.77
2022-08-10T01:29:48.652Z,1022.78
2022-08-10T01:30:48.653Z,1022.78
2022-08-10T01:31:48.619Z,1022.78
2022-08-10T01:32:48.617Z,1022.77
2022-08-10T01:34:01.996Z,1022.76
2022-08-10T01:34:48.599Z,1022.76
2022-08-10T01:35:48.595Z,1022.75
2022-08-10T01:36:48.580Z,1022.75
2022-08-10T01:37:52.132Z,1022.75
2022-08-10T01:38:48.555Z,1022.75
2022-08-10T01:39:48.573Z,1022.75
2022-08-10T01:40:48.543Z,1022.74
2022-08-10T01:41:48.514Z,1022.73
2022-08-10T01:42:48.519Z,1022.73
2022-08-10T01:43:48.497Z,1022.73
2022-08-10T01:44:48.488Z,1022.73
2022-08-10T01:45:48.483Z,1022.73
2022-08-10T01:46:48.464Z,1022.73
2022-08-10T01:47:48.451Z,1022.73
2022-08-10T01:48:48.460Z,1022.72
2022-08-10T01:49:48.439Z,1022.72
2022-08-10T01:50:59.835Z,1022.72
2022-08-10T01:51:48.432Z,1022.72
2022-08-10T01:52:48.402Z,1022.71
2022-08-10T01:53:48.387Z,1022.72
2022-08-10T01:54:48.393Z,1022.71
2022-08-10T01:55:48.390Z,1022.72
2022-08-10T01:56:48.366Z,1022.73
2022-08-10T01:57:48.342Z,1022.73
2022-08-10T01:58:48.336Z,1022.73
2022-08-10T01:59:58.669Z,1022.73
2022-08-10T02:00:48.460Z,1022.72
2022-08-10T02:01:48.375Z,1022.71
2022-08-10T02:02:54.331Z,1022.70
2022-08-10T02:04:05.330Z,1022.70
2022-08-10T02:04:48.291Z,1022.70
2022-08-10T02:05:48.286Z,1022.70
2022-08-10T02:06:48.256Z,1022.71
2022-08-10T02:07:48.235Z,1022.70
2022-08-10T02:08:48.279Z,1022.69
2022-08-10T02:09:48.222Z,1022.69
2022-08-10T02:10:48.348Z,1022.69
2022-08-10T02:12:06.546Z,1022.69
2022-08-10T02:12:48.197Z,1022.70
2022-08-10T02:13:48.183Z,1022.71
2022-08-10T02:14:48.170Z,1022.71
2022-08-10T02:16:02.196Z,1022.72
2022-08-10T02:16:48.162Z,1022.72
2022-08-10T02:18:00.250Z,1022.72
2022-08-10T02:18:48.140Z,1022.71
2022-08-10T02:19:48.115Z,1022.72
2022-08-10T02:20:48.150Z,1022.74
2022-08-10T02:22:36.154Z,1022.75
2022-08-10T02:22:48.377Z,1022.77
2022-08-10T02:23:52.985Z,1022.77
2022-08-10T02:24:48.063Z,1022.77
2022-08-10T02:25:48.061Z,1022.76
2022-08-10T02:26:48.040Z,1022.75
2022-08-10T02:27:48.023Z,1022.75
2022-08-10T02:28:48.023Z,1022.75
2022-08-10T02:29:49.019Z,1022.74
2022-08-10T02:30:48.019Z,1022.75
2022-08-10T02:31:49.637Z,1022.75
2022-08-10T02:32:52.609Z,1022.75
2022-08-10T02:33:56.702Z,1022.76
2022-08-10T02:34:47.967Z,1022.77
2022-08-10T02:35:55.454Z,1022.77
2022-08-10T02:36:47.958Z,1022.78
2022-08-10T02:37:47.924Z,1022.78
2022-08-10T02:38:58.251Z,1022.78
2022-08-10T02:39:47.968Z,1022.78
2022-08-10T02:42:18.119Z,1022.78
2022-08-10T02:45:31.188Z,1022.77
2022-08-10T02:45:36.732Z,1022.75
2022-08-10T02:46:31.890Z,1022.76
2022-08-10T02:47:51.041Z,1022.76
2022-08-10T02:48:31.855Z,1022.77
2022-08-10T02:49:31.843Z,1022.78
2022-08-10T02:50:31.844Z,1022.78
2022-08-10T02:52:07.051Z,1022.78
2022-08-10T02:52:31.874Z,1022.77
2022-08-10T02:53:55.430Z,1022.79
2022-08-10T02:54:31.786Z,1022.78
2022-08-10T02:55:32.740Z,1022.80
2022-08-10T02:56:31.787Z,1022.81
2022-08-10T02:57:31.747Z,1022.81
2022-08-10T02:58:31.743Z,1022.82
2022-08-10T02:59:39.786Z,1022.84
2022-08-10T03:00:31.768Z,1022.85
2022-08-10T03:01:31.811Z,1022.87
2022-08-10T03:02:31.745Z,1022.87
2022-08-10T03:03:31.695Z,1022.88
2022-08-10T03:04:56.134Z,1022.88
2022-08-10T03:05:31.698Z,1022.87
2022-08-10T03:06:31.675Z,1022.86
2022-08-10T03:07:44.710Z,1022.85
2022-08-10T03:08:31.643Z,1022.85
2022-08-10T03:09:31.677Z,1022.85
2022-08-10T03:10:31.638Z,1022.85
2022-08-10T03:12:36.608Z,1022.85
2022-08-10T03:12:42.675Z,1022.85
2022-08-10T03:13:31.577Z,1022.85
2022-08-10T03:14:31.569Z,1022.84
2022-08-10T03:15:31.523Z,1022.83
2022-08-10T03:16:33.327Z,1022.82
2022-08-10T03:17:31.485Z,1022.81
2022-08-10T03:18:31.480Z,1022.81
2022-08-10T03:20:35.674Z,1022.81
2022-08-10T03:20:43.143Z,1022.81
2022-08-10T03:21:31.470Z,1022.80
2022-08-10T03:22:31.478Z,1022.79
2022-08-10T03:23:31.417Z,1022.77
2022-08-10T03:24:33.408Z,1022.77
2022-08-10T03:25:31.393Z,1022.77
2022-08-10T03:26:31.414Z,1022.77
2022-08-10T03:27:31.411Z,1022.76
2022-08-10T03:28:31.375Z,1022.77
2022-08-10T03:29:31.351Z,1022.78
2022-08-10T03:30:34.266Z,1022.78
2022-08-10T03:31:31.347Z,1022.78
2022-08-10T03:32:31.380Z,1022.78
2022-08-10T03:33:31.381Z,1022.78
2022-08-10T03:34:33.469Z,1022.79
2022-08-10T03:35:31.288Z,1022.80
2022-08-10T03:36:41.783Z,1022.80
2022-08-10T03:37:31.270Z,1022.81
2022-08-10T03:38:31.275Z,1022.80
2022-08-10T03:39:31.284Z,1022.80
2022-08-10T03:40:32.307Z,1022.80
2022-08-10T03:41:35.624Z,1022.80
2022-08-10T03:42:31.293Z,1022.80
2022-08-10T03:43:31.205Z,1022.80
2022-08-10T03:44:31.211Z,1022.80
2022-08-10T03:45:31.206Z,1022.79
2022-08-10T03:46:31.205Z,1022.79
2022-08-10T03:47:31.167Z,1022.79
2022-08-10T03:48:33.154Z,1022.78
2022-08-10T03:49:31.149Z,1022.77
2022-08-10T03:50:51.080Z,1022.78
2022-08-10T03:51:31.155Z,1022.78
2022-08-10T03:52:31.151Z,1022.79
2022-08-10T03:54:05.590Z,1022.80
2022-08-10T03:54:31.101Z,1022.81
2022-08-10T03:56:30.055Z,1022.81
2022-08-10T03:56:35.978Z,1022.81
2022-08-10T03:57:31.095Z,1022.80
2022-08-10T03:58:31.053Z,1022.80
2022-08-10T03:59:31.061Z,1022.80
2022-08-10T04:00:31.047Z,1022.81
2022-08-10T04:02:45.595Z,1022.82
2022-08-10T04:02:53.182Z,1022.84
2022-08-10T04:03:30.997Z,1022.85
2022-08-10T04:04:30.995Z,1022.86
2022-08-10T04:05:38.285Z,1022.86
2022-08-10T04:06:30.972Z,1022.86
2022-08-10T04:07:30.948Z,1022.86
2022-08-10T04:08:30.966Z,1022.85
2022-08-10T04:09:55.964Z,1022.84
2022-08-10T04:10:30.965Z,1022.83
2022-08-10T04:11:30.907Z,1022.82
2022-08-10T04:12:30.898Z,1022.83
2022-08-10T04:13:30.906Z,1022.84
2022-08-10T04:14:38.710Z,1022.84
2022-08-10T04:15:30.896Z,1022.85
2022-08-10T04:16:30.879Z,1022.85
2022-08-10T04:18:05.018Z,1022.85
2022-08-10T04:18:30.846Z,1022.86
2022-08-10T04:19:30.822Z,1022.86
2022-08-10T04:20:34.996Z,1022.88
2022-08-10T04:21:30.823Z,1022.89
2022-08-10T04:22:30.833Z,1022.89
2022-08-10T04:23:30.786Z,1022.90
2022-08-10T04:24:31.898Z,1022.91
2022-08-10T04:25:30.755Z,1022.91
2022-08-10T04:26:30.779Z,1022.91
2022-08-10T04:27:30.745Z,1022.91
2022-08-10T04:28:30.767Z,1022.91
2022-08-10T04:29:30.713Z,1022.91
2022-08-10T04:30:30.715Z,1022.92
2022-08-10T04:31:30.712Z,1022.92
2022-08-10T04:32:30.695Z,1022.92
2022-08-10T04:33:30.683Z,1022.92
2022-08-10T04:34:30.672Z,1022.92
2022-08-10T04:35:30.649Z,1022.92
2022-08-10T04:36:30.696Z,1022.92
2022-08-10T04:37:30.632Z,1022.93
2022-08-10T04:38:30.639Z,1022.94
2022-08-10T04:39:30.661Z,1022.94
2022-08-10T04:40:31.270Z,1022.95
2022-08-10T04:41:30.636Z,1022.96
2022-08-10T04:42:30.642Z,1022.97
2022-08-10T04:43:30.650Z,1022.97
2022-08-10T04:44:30.612Z,1022.97
2022-08-10T04:45:50.193Z,1022.97
2022-08-10T04:46:55.899Z,1022.96
2022-08-10T04:48:00.258Z,1022.96
2022-08-10T04:48:43.198Z,1022.96
2022-08-10T04:49:54.083Z,1022.96
2022-08-10T04:50:30.535Z,1022.97
2022-08-10T04:51:30.518Z,1022.97
2022-08-10T04:52:30.473Z,1022.98
2022-08-10T04:53:30.457Z,1022.99
2022-08-10T04:54:30.453Z,1023.00
2022-08-10T04:55:30.437Z,1023.01
2022-08-10T04:56:31.698Z,1023.02
2022-08-10T04:57:30.431Z,1023.03
2022-08-10T04:58:30.408Z,1023.04
2022-08-10T04:59:30.423Z,1023.04
2022-08-10T05:00:30.494Z,1023.05
2022-08-10T05:02:22.377Z,1023.05
2022-08-10T05:02:35.581Z,1023.06
2022-08-10T05:03:30.353Z,1023.07
2022-08-10T05:04:36.445Z,1023.08
2022-08-10T05:05:30.355Z,1023.08
2022-08-10T05:06:30.347Z,1023.10
2022-08-10T05:07:30.307Z,1023.10
2022-08-10T05:08:30.303Z,1023.11
2022-08-10T05:09:30.289Z,1023.11
2022-08-10T05:10:30.287Z,1023.11
2022-08-10T05:11:30.321Z,1023.11
2022-08-10T05:12:30.275Z,1023.11
2022-08-10T05:13:30.247Z,1023.12
2022-08-10T05:14:30.259Z,1023.13
2022-08-10T05:15:30.231Z,1023.13
2022-08-10T05:16:31.883Z,1023.15
2022-08-10T05:17:30.216Z,1023.16
2022-08-10T05:18:30.196Z,1023.16
2022-08-10T05:20:02.359Z,1023.17
2022-08-10T05:20:30.190Z,1023.17
2022-08-10T05:22:03.025Z,1023.17
2022-08-10T05:22:30.183Z,1023.16
2022-08-10T05:23:30.137Z,1023.17
2022-08-10T05:24:30.182Z,1023.16
2022-08-10T05:25:32.813Z,1023.16
2022-08-10T05:26:30.136Z,1023.17
2022-08-10T05:27:30.098Z,1023.18
2022-08-10T05:28:30.853Z,1023.18
2022-08-10T05:29:30.077Z,1023.17
2022-08-10T05:30:30.090Z,1023.17
2022-08-10T05:31:30.058Z,1023.18
2022-08-10T05:32:32.604Z,1023.18
2022-08-10T05:33:30.093Z,1023.19
2022-08-10T05:34:30.047Z,1023.20
2022-08-10T05:35:55.346Z,1023.21
2022-08-10T05:36:30.034Z,1023.21
2022-08-10T05:38:09.519Z,1023.21
2022-08-10T05:38:30.023Z,1023.21
2022-08-10T05:39:32.166Z,1023.22
2022-08-10T05:41:00.680Z,1023.24
2022-08-10T05:42:01.883Z,1023.25
2022-08-10T05:43:01.622Z,1023.27
2022-08-10T05:43:59.786Z,1023.29
2022-08-10T05:44:59.766Z,1023.30
2022-08-10T05:46:18.903Z,1023.31
2022-08-10T05:46:59.771Z,1023.31
2022-08-10T05:48:57.766Z,1023.31
2022-08-10T05:49:04.503Z,1023.31
2022-08-10T05:49:59.788Z,1023.31
2022-08-10T05:50:59.748Z,1023.32
2022-08-10T05:51:59.718Z,1023.32
2022-08-10T05:53:05.716Z,1023.32
2022-08-10T05:54:06.870Z,1023.33
2022-08-10T05:55:02.867Z,1023.34
2022-08-10T05:55:59.741Z,1023.35
2022-08-10T05:56:59.649Z,1023.35
2022-08-10T05:57:59.669Z,1023.34
2022-08-10T05:58:59.633Z,1023.34
2022-08-10T06:00:31.132Z,1023.34
2022-08-10T06:00:59.655Z,1023.35
2022-08-10T06:02:32.078Z,1023.35
2022-08-10T06:02:59.611Z,1023.36
2022-08-10T06:03:59.586Z,1023.36
2022-08-10T06:04:59.594Z,1023.36
2022-08-10T06:05:59.748Z,1023.37
2022-08-10T06:07:00.178Z,1023.37
2022-08-10T06:07:59.531Z,1023.38
2022-08-10T06:08:59.527Z,1023.37
2022-08-10T06:10:00.461Z,1023.39
2022-08-10T06:12:27.135Z,1023.39
2022-08-10T06:12:53.336Z,1023.39
2022-08-10T06:12:59.884Z,1023.40
2022-08-10T06:14:13.355Z,1023.42
2022-08-10T06:14:59.883Z,1023.43
2022-08-10T06:15:59.572Z,1023.42
2022-08-10T06:16:59.454Z,1023.43
2022-08-10T06:18:02.133Z,1023.43
2022-08-10T06:18:59.412Z,1023.43
2022-08-10T06:19:59.447Z,1023.43
2022-08-10T06:20:59.437Z,1023.43
2022-08-10T06:22:01.420Z,1023.43
2022-08-10T06:22:59.376Z,1023.43
2022-08-10T06:23:59.368Z,1023.42
2022-08-10T06:25:31.935Z,1023.43
2022-08-10T06:26:12.119Z,1023.42
2022-08-10T06:26:59.351Z,1023.42
2022-08-10T06:27:59.315Z,1023.42
2022-08-10T06:29:03.041Z,1023.43
2022-08-10T06:29:59.318Z,1023.42
2022-08-10T06:30:59.298Z,1023.42
2022-08-10T06:31:59.280Z,1023.42
2022-08-10T06:32:59.301Z,1023.42
2022-08-10T06:33:59.282Z,1023.42
2022-08-10T06:34:59.285Z,1023.42
2022-08-10T06:35:59.264Z,1023.42
2022-08-10T06:36:59.287Z,1023.42
2022-08-10T06:37:59.218Z,1023.42
2022-08-10T06:39:16.672Z,1023.42
2022-08-10T06:39:59.274Z,1023.40
2022-08-10T06:40:59.277Z,1023.39
2022-08-10T06:42:15.756Z,1023.38
2022-08-10T06:42:59.176Z,1023.37
2022-08-10T06:43:59.224Z,1023.36
2022-08-10T06:44:59.159Z,1023.37
2022-08-10T06:46:07.650Z,1023.37
2022-08-10T06:46:59.166Z,1023.36
2022-08-10T06:47:59.127Z,1023.35
2022-08-10T06:48:59.121Z,1023.35
2022-08-10T06:49:59.802Z,1023.34
2022-08-10T06:50:59.390Z,1023.34
2022-08-10T06:51:59.069Z,1023.33
2022-08-10T06:52:59.055Z,1023.33
2022-08-10T06:53:59.076Z,1023.31
2022-08-10T06:54:59.045Z,1023.31
2022-08-10T06:55:59.058Z,1023.30
2022-08-10T06:57:17.479Z,1023.29
2022-08-10T06:57:59.831Z,1023.28
2022-08-10T06:58:58.998Z,1023.27
2022-08-10T06:59:58.995Z,1023.26
2022-08-10T07:00:59.061Z,1023.24
2022-08-10T07:01:58.973Z,1023.23
2022-08-10T07:02:58.962Z,1023.22
2022-08-10T07:03:58.976Z,1023.22
2022-08-10T07:04:58.934Z,1023.23
2022-08-10T07:05:58.979Z,1023.22
2022-08-10T07:06:58.941Z,1023.21
2022-08-10T07:07:58.907Z,1023.22
2022-08-10T07:08:59.010Z,1023.22
2022-08-10T07:09:58.906Z,1023.22
2022-08-10T07:10:58.888Z,1023.22
2022-08-10T07:12:07.616Z,1023.22
2022-08-10T07:12:58.898Z,1023.23
2022-08-10T07:14:17.080Z,1023.24
2022-08-10T07:14:58.838Z,1023.24
2022-08-10T07:16:00.611Z,1023.25
2022-08-10T07:16:58.807Z,1023.23
2022-08-10T07:17:58.814Z,1023.23
2022-08-10T07:18:58.805Z,1023.23
2022-08-10T07:19:58.778Z,1023.20
2022-08-10T07:20:58.806Z,1023.20
2022-08-10T07:21:58.784Z,1023.22
2022-08-10T07:23:22.906Z,1023.20
2022-08-10T07:24:04.189Z,1023.20
2022-08-10T07:24:58.730Z,1023.20
2022-08-10T07:25:58.769Z,1023.20
2022-08-10T07:26:58.707Z,1023.20
2022-08-10T07:28:01.571Z,1023.20
2022-08-10T07:28:58.732Z,1023.21
2022-08-10T07:29:58.673Z,1023.21
2022-08-10T07:30:58.676Z,1023.20
2022-08-10T07:31:58.667Z,1023.19
2022-08-10T07:32:58.648Z,1023.20
2022-08-10T07:33:58.634Z,1023.18
2022-08-10T07:34:58.626Z,1023.18
2022-08-10T07:35:58.631Z,1023.19
2022-08-10T07:36:58.629Z,1023.19
2022-08-10T07:37:58.593Z,1023.18
2022-08-10T07:38:58.592Z,1023.16
2022-08-10T07:40:03.735Z,1023.16
2022-08-10T07:40:59.190Z,1023.15
2022-08-10T07:41:58.589Z,1023.16
2022-08-10T07:42:58.542Z,1023.16
2022-08-10T07:43:58.533Z,1023.17
2022-08-10T07:44:58.542Z,1023.17
2022-08-10T07:45:58.556Z,1023.16
2022-08-10T07:46:58.547Z,1023.14
2022-08-10T07:48:01.432Z,1023.11
2022-08-10T07:48:58.513Z,1023.09
2022-08-10T07:49:58.476Z,1023.09
2022-08-10T07:50:58.476Z,1023.09
2022-08-10T07:51:58.470Z,1023.07
2022-08-10T07:52:58.460Z,1023.09
2022-08-10T07:53:58.442Z,1023.08
2022-08-10T07:54:58.426Z,1023.08
2022-08-10T07:56:04.595Z,1023.11
2022-08-10T07:56:58.402Z,1023.13
2022-08-10T07:57:58.403Z,1023.16
2022-08-10T07:58:58.373Z,1023.16
2022-08-10T07:59:58.384Z,1023.15
2022-08-10T08:00:58.368Z,1023.17
2022-08-10T08:01:58.494Z,1023.17
2022-08-10T08:04:05.427Z,1023.16
2022-08-10T08:04:51.100Z,1023.15
2022-08-10T08:05:57.410Z,1023.17
2022-08-10T08:06:51.082Z,1023.16
2022-08-10T08:07:51.063Z,1023.16
2022-08-10T08:08:51.055Z,1023.13
2022-08-10T08:09:57.895Z,1023.10
2022-08-10T08:10:51.055Z,1023.09
2022-08-10T08:11:51.020Z,1023.06
2022-08-10T08:12:51.012Z,1023.05
2022-08-10T08:13:50.997Z,1023.04
2022-08-10T08:14:50.995Z,1023.04
2022-08-10T08:16:19.154Z,1023.03
2022-08-10T08:16:51.067Z,1023.01
2022-08-10T08:18:00.889Z,1023.00
2022-08-10T08:19:16.375Z,1022.98
2022-08-10T08:19:55.472Z,1022.97
2022-08-10T08:20:50.955Z,1022.96
2022-08-10T08:24:09.974Z,1022.95
2022-08-10T08:24:37.745Z,1022.94
2022-08-10T08:24:43.516Z,1022.91
2022-08-10T08:25:43.077Z,1022.92
2022-08-10T08:26:43.508Z,1022.90
2022-08-10T08:27:47.655Z,1022.89
2022-08-10T08:28:42.995Z,1022.88
2022-08-10T08:29:42.985Z,1022.90
2022-08-10T08:30:48.330Z,1022.90
2022-08-10T08:32:02.091Z,1022.94
2022-08-10T08:32:42.959Z,1022.97
2022-08-10T08:33:43.000Z,1022.98
2022-08-10T08:34:42.930Z,1023.01
2022-08-10T08:35:42.938Z,1023.03
2022-08-10T08:36:42.909Z,1023.03
2022-08-10T08:38:32.442Z,1023.05
2022-08-10T08:38:42.897Z,1023.05
2022-08-10T08:39:46.224Z,1023.06
2022-08-10T08:40:42.890Z,1023.04
2022-08-10T08:41:42.863Z,1023.03
2022-08-10T08:42:42.853Z,1023.03
2022-08-10T08:43:42.848Z,1023.01
2022-08-10T08:44:42.829Z,1023.00
2022-08-10T08:45:54.033Z,1023.02
2022-08-10T08:46:42.816Z,1023.02
2022-08-10T08:48:03.179Z,1023.03
2022-08-10T08:48:42.801Z,1023.03
2022-08-10T08:50:08.740Z,1023.03
2022-08-10T08:50:42.794Z,1023.05
2022-08-10T08:52:08.071Z,1023.03
2022-08-10T08:52:42.759Z,1023.03
2022-08-10T08:54:01.838Z,1023.02
2022-08-10T08:54:42.738Z,1023.03
2022-08-10T08:56:05.122Z,1023.01
2022-08-10T08:56:45.758Z,1023.02
2022-08-10T08:57:50.195Z,1023.01
2022-08-10T08:58:42.712Z,1023.01
2022-08-10T08:59:42.684Z,1023.00
2022-08-10T09:00:42.699Z,1023.00
2022-08-10T09:01:42.740Z,1022.98
2022-08-10T09:02:42.657Z,1022.97
2022-08-10T09:03:42.645Z,1022.97
2022-08-10T09:04:42.632Z,1022.97
2022-08-10T09:06:00.268Z,1022.98
2022-08-10T09:06:42.618Z,1022.97
2022-08-10T09:08:00.360Z,1022.97
2022-08-10T09:08:42.602Z,1022.95
2022-08-10T09:09:42.583Z,1022.95
2022-08-10T09:10:42.591Z,1022.94
2022-08-10T09:11:42.561Z,1022.94
2022-08-10T09:12:42.552Z,1022.94
2022-08-10T09:13:42.543Z,1022.92
2022-08-10T09:14:42.529Z,1022.91
2022-08-10T09:15:42.540Z,1022.92
2022-08-10T09:16:42.510Z,1022.94
2022-08-10T09:17:42.504Z,1022.95
2022-08-10T09:18:42.491Z,1022.94
2022-08-10T09:19:42.490Z,1022.91
2022-08-10T09:20:42.505Z,1022.91
2022-08-10T09:21:43.368Z,1022.91
2022-08-10T09:22:42.458Z,1022.92
2022-08-10T09:24:04.372Z,1022.90
2022-08-10T09:24:42.435Z,1022.89
2022-08-10T09:25:42.442Z,1022.89
2022-08-10T09:26:42.409Z,1022.89
2022-08-10T09:27:43.380Z,1022.87
2022-08-10T09:28:42.394Z,1022.86
2022-08-10T09:29:42.394Z,1022.90
2022-08-10T09:30:52.226Z,1022.89
2022-08-10T09:31:42.386Z,1022.90
2022-08-10T09:36:20.689Z,1022.91
2022-08-10T09:36:35.756Z,1022.91
2022-08-10T09:36:41.574Z,1022.92
2022-08-10T09:38:02.179Z,1022.93
2022-08-10T09:38:40.992Z,1022.91
2022-08-10T09:40:46.256Z,1022.91
2022-08-10T09:41:12.810Z,1022.87
2022-08-10T09:41:40.989Z,1022.85
2022-08-10T09:42:40.902Z,1022.84
2022-08-10T09:43:40.890Z,1022.82
2022-08-10T09:44:58.035Z,1022.79
2022-08-10T09:45:40.907Z,1022.77
2022-08-10T09:46:40.857Z,1022.74
2022-08-10T09:48:01.930Z,1022.74
2022-08-10T09:48:40.842Z,1022.73
2022-08-10T09:49:58.729Z,1022.72
2022-08-10T09:51:28.086Z,1022.74
2022-08-10T09:51:47.520Z,1022.73
2022-08-10T09:52:40.794Z,1022.73
2022-08-10T09:53:40.793Z,1022.73
2022-08-10T09:54:40.798Z,1022.72
2022-08-10T09:56:17.953Z,1022.72
2022-08-10T09:56:40.762Z,1022.72
2022-08-10T09:57:54.835Z,1022.70
2022-08-10T09:58:40.740Z,1022.71
2022-08-10T10:00:01.472Z,1022.73
2022-08-10T10:00:40.725Z,1022.72
2022-08-10T10:02:03.043Z,1022.71
2022-08-10T10:02:40.700Z,1022.70
2022-08-10T10:03:40.767Z,1022.69
2022-08-10T10:04:40.702Z,1022.69
2022-08-10T10:05:50.285Z,1022.68
2022-08-10T10:06:40.660Z,1022.67
2022-08-10T10:07:40.648Z,1022.67
2022-08-10T10:08:42.955Z,1022.65
2022-08-10T10:09:40.661Z,1022.64
2022-08-10T10:10:46.626Z,1022.62
2022-08-10T10:11:40.623Z,1022.63
2022-08-10T10:12:40.601Z,1022.63
2022-08-10T10:13:54.642Z,1022.63
2022-08-10T10:14:40.638Z,1022.61
2022-08-10T10:15:40.569Z,1022.59
2022-08-10T10:16:40.554Z,1022.56
2022-08-10T10:17:40.552Z,1022.60
2022-08-10T10:18:40.533Z,1022.58
2022-08-10T10:19:41.128Z,1022.55
2022-08-10T10:20:40.516Z,1022.56
2022-08-10T10:21:55.387Z,1022.56
2022-08-10T10:22:40.506Z,1022.53
2022-08-10T10:23:40.489Z,1022.56
2022-08-10T10:24:40.496Z,1022.55
2022-08-10T10:25:51.267Z,1022.54
2022-08-10T10:26:40.461Z,1022.53
2022-08-10T10:27:40.454Z,1022.54
2022-08-10T10:29:15.121Z,1022.53
2022-08-10T10:29:58.566Z,1022.52
2022-08-10T10:30:40.419Z,1022.51
2022-08-10T10:31:40.424Z,1022.49
2022-08-10T10:32:40.395Z,1022.46
2022-08-10T10:33:40.384Z,1022.44
2022-08-10T10:34:40.391Z,1022.43
2022-08-10T10:35:40.381Z,1022.42
2022-08-10T10:36:40.354Z,1022.39
2022-08-10T10:38:00.779Z,1022.40
2022-08-10T10:38:40.348Z,1022.38
2022-08-10T10:39:40.388Z,1022.37
2022-08-10T10:40:40.335Z,1022.34
2022-08-10T10:42:03.406Z,1022.32
2022-08-10T10:42:47.379Z,1022.31
2022-08-10T10:43:40.293Z,1022.30
2022-08-10T10:44:42.298Z,1022.27
2022-08-10T10:45:43.984Z,1022.25
2022-08-10T10:46:40.269Z,1022.23
2022-08-10T10:47:40.269Z,1022.23
2022-08-10T10:48:40.277Z,1022.22
2022-08-10T10:49:40.226Z,1022.23
2022-08-10T10:50:40.235Z,1022.24
2022-08-10T10:51:40.197Z,1022.25
2022-08-10T10:52:40.195Z,1022.26
2022-08-10T10:53:40.182Z,1022.24
2022-08-10T10:54:40.206Z,1022.23
2022-08-10T10:56:13.435Z,1022.22
2022-08-10T10:56:40.162Z,1022.23
2022-08-10T10:57:59.073Z,1022.20
2022-08-10T10:58:40.156Z,1022.20
2022-08-10T10:59:55.448Z,1022.19
2022-08-10T11:00:40.120Z,1022.20
2022-08-10T11:01:40.181Z,1022.21
2022-08-10T11:02:40.101Z,1022.18
2022-08-10T11:03:40.086Z,1022.16
2022-08-10T11:04:40.095Z,1022.16
2022-08-10T11:05:40.060Z,1022.15
2022-08-10T11:06:40.837Z,1022.16
2022-08-10T11:07:40.043Z,1022.15
2022-08-10T11:08:40.043Z,1022.11
2022-08-10T11:10:06.014Z,1022.10
2022-08-10T11:10:46.921Z,1022.09
2022-08-10T11:12:00.131Z,1022.08
2022-08-10T11:12:43.619Z,1022.08
2022-08-10T11:14:25.880Z,1022.07
2022-08-10T11:14:39.996Z,1022.09
2022-08-10T11:15:43.063Z,1022.12
2022-08-10T11:16:39.960Z,1022.13
2022-08-10T11:17:39.942Z,1022.16
2022-08-10T11:18:39.949Z,1022.15
2022-08-10T11:20:00.247Z,1022.10
2022-08-10T11:20:39.923Z,1022.07
2022-08-10T11:21:39.901Z,1022.05
2022-08-10T11:22:39.930Z,1022.02
2022-08-10T11:23:39.881Z,1022.02
2022-08-10T11:24:47.342Z,1022.01
2022-08-10T11:25:39.861Z,1022.01
2022-08-10T11:26:39.873Z,1022.01
2022-08-10T11:27:39.840Z,1022.00
2022-08-10T11:28:39.846Z,1022.02
2022-08-10T11:29:43.918Z,1022.04
2022-08-10T11:30:39.824Z,1022.03
2022-08-10T11:31:39.820Z,1022.03
2022-08-10T11:32:39.812Z,1022.01
2022-08-10T11:34:04.036Z,1021.99
2022-08-10T11:35:11.626Z,1021.99
2022-08-10T11:35:39.766Z,1021.99
2022-08-10T11:36:39.755Z,1022.01
2022-08-10T11:38:32.112Z,1021.99
2022-08-10T11:39:04.002Z,1021.99
2022-08-10T11:39:48.833Z,1021.99
2022-08-10T11:40:39.719Z,1021.99
2022-08-10T11:42:09.927Z,1022.00
2022-08-10T11:42:39.695Z,1022.01
2022-08-10T11:43:39.680Z,1022.00
2022-08-10T11:44:39.694Z,1021.98
2022-08-10T11:45:51.954Z,1021.95
2022-08-10T11:46:39.669Z,1021.91
2022-08-10T11:47:39.635Z,1021.89
2022-08-10T11:48:53.038Z,1021.87
2022-08-10T11:49:39.623Z,1021.85
2022-08-10T11:50:39.624Z,1021.83
2022-08-10T11:51:39.608Z,1021.81
2022-08-10T11:52:39.599Z,1021.79
2022-08-10T11:53:39.575Z,1021.77
2022-08-10T11:54:39.596Z,1021.76
2022-08-10T11:55:39.590Z,1021.75
2022-08-10T11:56:39.550Z,1021.75
2022-08-10T11:57:54.859Z,1021.76
2022-08-10T11:58:39.542Z,1021.79
2022-08-10T11:59:39.514Z,1021.75
2022-08-10T12:00:39.537Z,1021.78
2022-08-10T12:01:39.498Z,1021.84
2022-08-10T12:02:39.819Z,1021.82
2022-08-10T12:03:39.478Z,1021.80
2022-08-10T12:04:39.477Z,1021.76
2022-08-10T12:05:53.750Z,1021.76
2022-08-10T12:06:54.762Z,1021.75
2022-08-10T12:10:05.581Z,1021.73
2022-08-10T12:10:17.420Z,1021.72
2022-08-10T12:10:22.470Z,1021.69
2022-08-10T12:11:24.752Z,1021.68
2022-08-10T12:12:22.404Z,1021.65
2022-08-10T12:13:22.426Z,1021.64